createdAt,value
2018-04-20T05:10:35.779Z,3.73
2018-04-20T05:13:11.565Z,2.20
2018-04-20T05:15:51.163Z,3.70
2018-04-20T05:18:30.061Z,3.27
2018-04-20T05:21:01.355Z,2.20
2018-04-20T05:23:31.680Z,2.53
2018-04-20T05:26:11.003Z,2.30
2018-04-20T05:28:40.312Z,2.30
2018-04-20T05:31:12.821Z,2.50
2018-04-20T05:33:43.528Z,2.43
2018-04-20T05:36:18.213Z,2.43
2018-04-20T05:41:30.500Z,2.27
2018-04-20T05:44:02.960Z,2.50
2018-04-20T05:46:37.583Z,2.20
2018-04-20T05:49:11.090Z,3.30
2018-04-20T05:51:49.818Z,3.87
2018-04-20T05:57:15.439Z,3.30
2018-04-20T05:59:45.890Z,3.70
2018-04-20T06:02:21.907Z,2.50
2018-04-20T06:04:52.011Z,2.47
2018-04-20T06:07:21.531Z,3.37
2018-04-20T06:09:53.919Z,3.50
2018-04-20T06:12:31.229Z,2.40
2018-04-20T06:15:04.660Z,1.73
2018-04-20T06:17:34.735Z,2.97
2018-04-20T06:22:54.342Z,2.27
2018-04-20T06:25:25.465Z,2.40
2018-04-20T06:28:02.088Z,3.10
2018-04-20T06:30:30.953Z,2.57
2018-04-20T06:32:59.539Z,2.10
2018-04-20T06:35:29.303Z,2.63
2018-04-20T06:37:58.645Z,2.73
2018-04-20T06:40:28.160Z,2.03
2018-04-20T06:43:00.980Z,1.80
2018-04-20T06:45:46.289Z,2.30
2018-04-20T06:48:22.650Z,2.17
2018-04-20T06:55:17.932Z,2.17
2018-04-20T06:57:47.233Z,2.73
2018-04-20T07:00:22.779Z,1.97
2018-04-20T07:03:12.667Z,3.17
2018-04-20T07:05:49.381Z,2.17
2018-04-20T07:08:19.040Z,2.30
2018-04-20T07:10:49.990Z,2.30
2018-04-20T07:13:21.944Z,2.20
2018-04-20T07:15:57.115Z,2.23
2018-04-20T07:18:29.760Z,2.90
2018-04-20T07:21:03.524Z,3.80
2018-04-20T07:23:35.873Z,2.63
2018-04-20T07:28:34.570Z,1.80
2018-04-20T07:31:04.009Z,2.60
2018-04-20T07:33:41.586Z,2.80
2018-04-20T07:36:10.327Z,2.93
2018-04-20T07:38:41.532Z,2.77
2018-04-20T07:41:10.321Z,2.03
2018-04-20T07:43:39.491Z,2.00
2018-04-20T07:46:08.542Z,2.20
2018-04-20T07:48:37.406Z,2.07
2018-04-20T07:51:13.029Z,2.43
2018-04-20T07:53:41.512Z,2.80
2018-04-20T07:56:21.230Z,2.07
2018-04-20T07:58:49.946Z,2.30
2018-04-20T08:01:19.220Z,2.03
2018-04-20T08:03:53.056Z,2.20
2018-04-20T08:06:37.645Z,1.70
2018-04-20T08:09:14.534Z,2.00
2018-04-20T08:11:44.465Z,1.90
2018-04-20T08:14:15.040Z,2.03
2018-04-20T08:16:47.415Z,3.63
2018-04-20T08:19:17.638Z,4.63
2018-04-20T08:21:46.074Z,5.37
2018-04-20T08:24:14.944Z,2.90
2018-04-20T08:26:46.067Z,7.93
2018-04-20T08:29:15.493Z,11.07
2018-04-20T08:31:45.017Z,10.63
2018-04-20T08:34:20.420Z,9.03
2018-04-20T08:36:52.012Z,8.00
2018-04-20T08:39:22.007Z,10.30
2018-04-20T08:41:50.577Z,7.40
2018-04-20T08:44:21.956Z,9.87
2018-04-20T08:46:54.637Z,10.47
2018-04-20T08:49:23.590Z,7.70
2018-04-20T08:51:54.230Z,5.30
2018-04-20T08:57:38.347Z,5.17
2018-04-20T09:03:40.513Z,5.00
2018-04-20T09:06:09.515Z,8.47
2018-04-20T09:08:38.781Z,3.97
2018-04-20T09:11:07.329Z,3.63
2018-04-20T09:13:36.013Z,7.40
2018-04-20T09:16:04.347Z,8.70
2018-04-20T09:18:33.148Z,6.50
2018-04-20T09:21:02.634Z,4.03
2018-04-20T09:23:31.268Z,5.47
2018-04-20T09:26:01.784Z,4.03
2018-04-20T09:28:31.273Z,5.90
2018-04-20T09:31:00.374Z,4.50
2018-04-20T09:33:30.219Z,4.63
2018-04-20T09:35:59.345Z,3.50
2018-04-20T09:38:29.816Z,6.13
2018-04-20T09:40:58.930Z,6.60
2018-04-20T09:43:27.308Z,3.83
2018-04-20T09:45:58.190Z,6.57
2018-04-20T09:48:28.830Z,4.60
2018-04-20T09:50:58.842Z,3.03
2018-04-20T09:53:27.283Z,8.73
2018-04-20T09:55:55.573Z,6.37
2018-04-20T09:58:25.518Z,5.70
2018-04-20T10:00:59.823Z,10.83
2018-04-20T10:03:30.106Z,8.97
2018-04-20T10:05:59.375Z,8.17
2018-04-20T10:08:27.814Z,11.80
2018-04-20T10:10:58.639Z,10.70
2018-04-20T10:13:26.974Z,13.23
2018-04-20T10:15:55.701Z,14.53
2018-04-20T10:18:24.126Z,8.70
2018-04-20T10:20:54.003Z,12.87
2018-04-20T10:23:24.079Z,12.77
2018-04-20T10:25:53.214Z,8.80
2018-04-20T10:28:22.489Z,11.20
2018-04-20T10:30:50.858Z,9.73
2018-04-20T10:33:19.244Z,8.23
2018-04-20T10:35:47.554Z,10.60
2018-04-20T10:38:18.806Z,11.77
2018-04-20T10:40:48.993Z,10.13
2018-04-20T10:43:17.406Z,15.60
2018-04-20T10:45:45.760Z,14.33
2018-04-20T10:48:14.272Z,13.37
2018-04-20T10:50:43.465Z,10.10
2018-04-20T10:53:12.016Z,10.97
2018-04-20T10:55:41.339Z,12.33
2018-04-20T10:58:10.598Z,9.40
2018-04-20T11:00:38.893Z,8.03
2018-04-20T11:03:09.001Z,12.60
2018-04-20T11:05:37.433Z,10.17
2018-04-20T11:08:06.763Z,9.10
2018-04-20T11:10:35.150Z,11.93
2018-04-20T11:13:04.268Z,8.20
2018-04-20T11:15:33.551Z,9.17
2018-04-20T11:18:02.713Z,12.63
2018-04-20T11:20:31.308Z,11.83
2018-04-20T11:23:13.637Z,12.37
2018-04-20T11:25:42.790Z,12.70
2018-04-20T11:28:11.533Z,12.93
2018-04-20T11:30:40.090Z,11.37
2018-04-20T11:33:10.117Z,11.07
2018-04-20T11:35:50.803Z,15.10
2018-04-20T11:38:19.191Z,17.67
2018-04-20T11:40:48.244Z,19.60
2018-04-20T11:43:17.379Z,16.70
2018-04-20T11:45:45.761Z,10.63
2018-04-20T11:48:16.720Z,13.33
2018-04-20T11:50:46.678Z,17.43
2018-04-20T11:53:15.821Z,12.90
2018-04-20T11:55:44.228Z,13.83
2018-04-20T11:58:13.615Z,16.00
2018-04-20T12:00:42.287Z,12.03
2018-04-20T12:03:12.132Z,8.93
2018-04-20T12:05:41.820Z,12.83
2018-04-20T12:08:18.363Z,11.10
2018-04-20T12:10:48.234Z,11.40
2018-04-20T12:13:18.864Z,12.20
2018-04-20T12:15:49.985Z,9.87
2018-04-20T12:18:20.406Z,10.17
2018-04-20T12:20:50.133Z,14.67
2018-04-20T12:23:19.530Z,15.77
2018-04-20T12:25:48.791Z,13.67
2018-04-20T12:28:29.681Z,11.27
2018-04-20T12:31:00.286Z,15.83
2018-04-20T12:33:30.160Z,9.40
2018-04-20T12:35:58.446Z,10.93
2018-04-20T12:38:28.069Z,11.57
2018-04-20T12:40:57.177Z,7.33
2018-04-20T12:43:25.529Z,10.03
2018-04-20T12:45:53.922Z,9.93
2018-04-20T12:48:23.172Z,12.07
2018-04-20T12:50:52.540Z,10.37
2018-04-20T12:53:22.956Z,6.97
2018-04-20T12:55:52.976Z,7.43
2018-04-20T12:58:23.504Z,10.67
2018-04-20T13:00:53.128Z,8.43
2018-04-20T13:03:23.187Z,7.23
2018-04-20T13:05:52.659Z,8.83
2018-04-20T13:08:31.487Z,6.70
2018-04-20T13:10:59.855Z,10.43
2018-04-20T13:13:30.116Z,7.53
2018-04-20T13:15:59.453Z,6.87
2018-04-20T13:18:31.786Z,7.27
2018-04-20T13:21:01.622Z,8.13
2018-04-20T13:23:31.950Z,7.47
2018-04-20T13:26:02.126Z,7.03
2018-04-20T13:28:32.583Z,10.63
2018-04-20T13:31:01.935Z,5.33
2018-04-20T13:33:30.744Z,6.33
2018-04-20T13:36:07.499Z,6.57
2018-04-20T13:38:37.518Z,5.60
2018-04-20T13:41:13.486Z,9.57
2018-04-20T13:43:47.825Z,12.83
2018-04-20T13:46:17.148Z,7.67
2018-04-20T13:48:46.134Z,7.27
2018-04-20T13:51:16.056Z,4.50
2018-04-20T13:53:44.439Z,9.13
2018-04-20T13:56:14.635Z,8.87
2018-04-20T13:58:44.745Z,8.50
2018-04-20T14:01:14.264Z,8.50
2018-04-20T14:03:44.226Z,5.50
2018-04-20T14:06:13.684Z,6.57
2018-04-20T14:08:46.417Z,6.17
2018-04-20T14:11:18.681Z,9.87
2018-04-20T14:13:49.335Z,5.67
2018-04-20T14:16:18.614Z,6.53
2018-04-20T14:18:48.443Z,9.47
2018-04-20T14:21:19.566Z,7.20
2018-04-20T14:23:50.479Z,5.57
2018-04-20T14:26:19.118Z,6.97
2018-04-20T14:28:51.266Z,5.37
2018-04-20T14:31:20.636Z,6.60
2018-04-20T14:33:50.539Z,4.50
2018-04-20T14:36:21.722Z,4.43
2018-04-20T14:38:53.971Z,4.87
2018-04-20T14:41:29.257Z,5.50
2018-04-20T14:43:59.597Z,6.93
2018-04-20T14:46:28.937Z,4.33
2018-04-20T14:49:22.157Z,5.33
2018-04-20T14:51:51.399Z,5.10
2018-04-20T14:54:20.592Z,5.93
2018-04-20T14:56:48.917Z,6.97
2018-04-20T14:59:24.655Z,4.33
2018-04-20T15:01:53.946Z,2.87
2018-04-20T15:04:24.603Z,4.50
2018-04-20T15:06:53.861Z,3.17
2018-04-20T15:09:29.263Z,4.90
2018-04-20T15:12:04.151Z,5.33
2018-04-20T15:14:35.226Z,3.43
2018-04-20T15:17:04.365Z,4.57
2018-04-20T15:19:47.603Z,4.70
2018-04-20T15:22:17.862Z,8.63
2018-04-20T15:24:52.741Z,3.90
2018-04-20T15:27:22.566Z,4.13
2018-04-20T15:30:00.081Z,5.13
2018-04-20T15:32:28.507Z,6.03
2018-04-20T15:35:02.521Z,4.77
2018-04-20T15:37:32.336Z,3.97
2018-04-20T15:40:02.966Z,5.30
2018-04-20T15:42:33.162Z,3.33
2018-04-20T15:45:02.708Z,6.00
2018-04-20T15:47:32.190Z,4.10
2018-04-20T15:50:02.973Z,4.07
2018-04-20T15:52:31.894Z,4.57
2018-04-20T15:55:02.226Z,3.07
2018-04-20T15:57:30.586Z,4.53
2018-04-20T15:59:59.957Z,3.73
2018-04-20T16:02:29.939Z,3.03
2018-04-20T16:04:58.618Z,3.37
2018-04-20T16:07:27.698Z,4.50
2018-04-20T16:09:59.814Z,5.90
2018-04-20T16:12:29.771Z,3.67
2018-04-20T16:14:58.882Z,6.83
2018-04-20T16:17:28.029Z,5.97
2018-04-20T16:19:57.974Z,6.73
2018-04-20T16:22:28.010Z,2.70
2018-04-20T16:24:56.433Z,2.30
2018-04-20T16:27:24.829Z,3.10
2018-04-20T16:29:57.306Z,3.33
2018-04-20T16:32:26.118Z,2.30
2018-04-20T16:34:59.027Z,3.20
2018-04-20T16:37:28.095Z,3.07
2018-04-20T16:39:58.575Z,5.30
2018-04-20T16:42:27.752Z,4.70
2018-04-20T16:44:57.046Z,9.77
2018-04-20T16:47:26.216Z,2.97
2018-04-20T16:49:54.646Z,8.07
2018-04-20T16:52:38.881Z,4.27
2018-04-20T16:55:08.098Z,3.87
2018-04-20T16:57:38.229Z,3.60
2018-04-20T17:00:07.427Z,13.13
2018-04-20T17:02:35.892Z,7.00
2018-04-20T17:05:05.163Z,6.23
2018-04-20T17:07:34.307Z,7.03
2018-04-20T17:10:03.622Z,4.23
2018-04-20T17:12:32.890Z,3.13
2018-04-20T17:15:02.283Z,4.27
2018-04-20T17:17:30.616Z,4.30
2018-04-20T17:19:58.922Z,7.50
2018-04-20T17:22:28.398Z,3.50
2018-04-20T17:24:56.698Z,3.73
2018-04-20T17:27:25.079Z,3.13
2018-04-20T17:29:54.419Z,3.80
2018-04-20T17:32:22.762Z,3.20
2018-04-20T17:34:54.245Z,4.10
2018-04-20T17:37:23.167Z,4.97
2018-04-20T17:39:52.278Z,6.17
2018-04-20T17:42:20.641Z,5.73
2018-04-20T17:44:50.170Z,7.93
2018-04-20T17:47:24.752Z,4.67
2018-04-20T17:49:53.111Z,5.00
2018-04-20T17:52:21.491Z,6.30
2018-04-20T17:54:49.883Z,7.60
2018-04-20T17:57:20.663Z,8.87
2018-04-20T17:59:49.070Z,6.67
2018-04-20T18:02:18.950Z,4.00
2018-04-20T18:04:48.075Z,3.93
2018-04-20T18:07:17.281Z,2.60
2018-04-20T18:09:49.548Z,2.83
2018-04-20T18:12:18.775Z,6.60
2018-04-20T18:14:47.852Z,3.83
2018-04-20T18:17:16.210Z,2.40
2018-04-20T18:19:45.478Z,2.20
2018-04-20T18:22:15.623Z,4.13
2018-04-20T18:24:44.993Z,5.23
2018-04-20T18:27:16.268Z,5.63
2018-04-20T18:29:46.312Z,5.30
2018-04-20T18:32:15.083Z,7.07
2018-04-20T18:34:44.296Z,5.23
2018-04-20T18:37:23.178Z,3.27
2018-04-20T18:39:52.399Z,4.80
2018-04-20T18:42:21.678Z,5.60
2018-04-20T18:44:49.974Z,4.43
2018-04-20T18:47:19.283Z,2.83
2018-04-20T18:49:50.492Z,5.27
2018-04-20T18:52:18.814Z,4.50
2018-04-20T18:54:48.911Z,4.67
2018-04-20T18:57:17.285Z,6.00
2018-04-20T18:59:46.573Z,6.43
2018-04-20T19:02:14.901Z,6.67
2018-04-20T19:04:43.442Z,5.53
2018-04-20T19:07:12.569Z,5.60
2018-04-20T19:09:47.679Z,3.97
2018-04-20T19:12:16.945Z,7.00
2018-04-20T19:14:45.304Z,8.17
2018-04-20T19:17:13.639Z,6.23
2018-04-20T19:19:42.694Z,7.20
2018-04-20T19:22:12.724Z,2.20
2018-04-20T19:24:42.123Z,3.43
2018-04-20T19:27:10.764Z,3.67
2018-04-20T19:29:39.250Z,3.57
2018-04-20T19:32:07.573Z,2.77
2018-04-20T19:34:35.876Z,3.03
2018-04-20T19:37:05.567Z,3.07
2018-04-20T19:39:33.914Z,4.03
2018-04-20T19:42:03.049Z,5.17
2018-04-20T19:44:31.399Z,4.87
2018-04-20T19:47:00.995Z,3.07
2018-04-20T19:49:29.914Z,4.57
2018-04-20T19:52:14.459Z,2.60
2018-04-20T19:54:42.803Z,5.20
2018-04-20T19:57:11.557Z,3.10
2018-04-20T19:59:41.196Z,5.47
2018-04-20T20:02:09.506Z,2.83
2018-04-20T20:04:37.985Z,3.10
2018-04-20T20:07:10.040Z,4.80
2018-04-20T20:09:38.339Z,2.80
2018-04-20T20:12:07.627Z,4.77
2018-04-20T20:14:42.920Z,4.93
2018-04-20T20:17:11.495Z,3.53
2018-04-20T20:19:39.789Z,2.87
2018-04-20T20:22:08.117Z,4.53
2018-04-20T20:24:38.059Z,5.03
2018-04-20T20:27:08.082Z,4.27
2018-04-20T20:29:38.120Z,2.63
2018-04-20T20:32:07.358Z,2.90
2018-04-20T20:34:36.438Z,4.47
2018-04-20T20:37:04.786Z,3.93
2018-04-20T20:39:33.886Z,3.20
2018-04-20T20:42:03.055Z,3.33
2018-04-20T20:44:31.839Z,4.07
2018-04-20T20:47:00.159Z,3.10
2018-04-20T20:49:31.197Z,2.80
2018-04-20T20:52:01.334Z,4.33
2018-04-20T20:54:31.084Z,3.10
2018-04-20T20:57:00.765Z,4.70
2018-04-20T20:59:29.169Z,2.87
2018-04-20T21:01:59.948Z,4.37
2018-04-20T21:04:28.371Z,3.23
2018-04-20T21:06:56.967Z,2.67
2018-04-20T21:09:26.065Z,2.87
2018-04-20T21:11:55.246Z,4.57
2018-04-20T21:14:23.610Z,5.07
2018-04-20T21:16:52.875Z,3.13
2018-04-20T21:19:22.317Z,2.43
2018-04-20T21:21:51.215Z,5.40
2018-04-20T21:24:19.588Z,6.30
2018-04-20T21:26:48.732Z,4.17
2018-04-20T21:29:18.719Z,3.00
2018-04-20T21:31:47.079Z,4.20
2018-04-20T21:34:15.454Z,2.50
2018-04-20T21:36:45.439Z,4.03
2018-04-20T21:39:14.532Z,2.73
2018-04-20T21:41:42.939Z,3.10
2018-04-20T21:44:12.171Z,2.77
2018-04-20T21:46:42.885Z,4.13
2018-04-20T21:49:12.112Z,3.57
2018-04-20T21:51:42.585Z,4.10
2018-04-20T21:54:12.438Z,4.47
2018-04-20T21:56:40.800Z,5.93
2018-04-20T21:59:09.203Z,4.07
2018-04-20T22:01:38.436Z,2.40
2018-04-20T22:04:08.337Z,2.43
2018-04-20T22:06:37.701Z,2.70
2018-04-20T22:09:06.756Z,3.50
2018-04-20T22:11:35.894Z,2.27
2018-04-20T22:14:07.025Z,5.20
2018-04-20T22:16:36.549Z,5.63
2018-04-20T22:19:06.670Z,2.83
2018-04-20T22:21:36.801Z,2.73
2018-04-20T22:24:05.205Z,3.40
2018-04-20T22:26:34.254Z,2.60
2018-04-20T22:29:02.594Z,4.37
2018-04-20T22:31:31.870Z,2.50
2018-04-20T22:34:08.361Z,3.23
2018-04-20T22:36:38.527Z,3.57
2018-04-20T22:39:07.629Z,3.30
2018-04-20T22:41:36.642Z,4.43
2018-04-20T22:44:06.836Z,3.40
2018-04-20T22:46:35.906Z,3.37
2018-04-20T22:49:05.583Z,3.67
2018-04-20T22:51:35.942Z,2.53
2018-04-20T22:54:05.826Z,2.30
2018-04-20T22:56:34.893Z,2.93
2018-04-20T22:59:03.238Z,1.93
2018-04-20T23:01:32.286Z,3.27
2018-04-20T23:04:00.638Z,3.13
2018-04-20T23:06:28.971Z,4.10
2018-04-20T23:08:58.649Z,3.23
2018-04-20T23:11:27.004Z,3.23
2018-04-20T23:13:56.181Z,2.90
2018-04-20T23:16:24.490Z,6.30
2018-04-20T23:18:55.031Z,2.30
2018-04-20T23:21:24.296Z,4.03
2018-04-20T23:23:52.623Z,2.83
2018-04-20T23:26:22.628Z,1.90
2018-04-20T23:28:51.075Z,4.30
2018-04-20T23:31:20.222Z,2.97
2018-04-20T23:33:49.586Z,3.37
2018-04-20T23:36:18.940Z,4.03
2018-04-20T23:38:54.326Z,3.00
2018-04-20T23:41:24.179Z,3.33
2018-04-20T23:43:55.158Z,4.23
2018-04-20T23:46:24.901Z,3.47
2018-04-20T23:49:07.867Z,2.27
2018-04-20T23:51:36.362Z,2.57
2018-04-20T23:54:06.193Z,8.30
2018-04-20T23:56:35.163Z,4.67
2018-04-20T23:59:05.051Z,4.90
